South Bend, IN (46556)

6:09 AM EST on December 21, 2014 (GMT -0500)
Mishawaka, Indiana Hooligan Heights | Change Station
CLOSE
Current Station
Personal Weather Station
Location: Mishawaka, IN
Elevation: 722 ft
Nearby Weather Stations

Elev 722 ft 41.65 °N, 86.20 °W | Updated 10 minutes ago

Overcast
Overcast
30.6 °F
Feels Like 31 °F
N
2.2
Wind Variable Wind from South

Today
High -- | Low -- °F
--% Chance of Precip.
Yesterday
High -- | Low -- °F
Precip. -- in
8:08 AM 5:17 PM
Waning Crescent, 0% visible
Pressure 30.29 in
Visibility 9.0 miles
Clouds Overcast 3500 ft
Windchill 31 °F
Dew Point 26 °F
Humidity 84%
Rainfall 0.00 in
Snow Depth Not available.
UV 0 out of 12
Pollen .10 out of 12
Air Quality Not available.
Flu Activity Not available.
METAR KSBN 211054Z 18005KT 9SM OVC035 00/M03 A3026 RMK AO2 SLP256 T00001033

More Conditions Fewer Conditions

Pressure 30.29 in
Visibility 9.0 miles
Clouds Overcast 3500 ft
Windchill 31 °F
Dew Point 26 °F
Humidity 84%
Rainfall 0.00 in
Snow Depth Not available.
UV 0 out of 12
Pollen .10 out of 12
Air Quality Not available.
Flu Activity Not available.
METAR KSBN 211054Z 18005KT 9SM OVC035 00/M03 A3026 RMK AO2 SLP256 T00001033

More Conditions Fewer Conditions

10-Day Weather Forecast

Almanac

Astronomy

Dec. 21, 2014 Rise Set
Actual Time
Civil Twilight
Nautical Twilight
Astronomical Twilight
Moon
Length of Visible Light
Length of Day
Tomorrow will be .
, % of the Moon is Illuminated

Today's Extremes

State Highs State Lows

Community

WunderPhotos

Upload Photos

1,779,367 photos uploaded!

WunderBlogs® & News

Nearby

Air Quality

  Air Quality AQ Index Pollutant
Not available.

Snow Depth

Station Depth Elevation

Earthquake Activity

City Distance Mag. Time & Date
Minimum magnitude displayed is 2.5.

Coastal Water Temperatures

Place Temperature

Nearby Weather Stations